sensor_id;sensor_type;location;lat;lon;timestamp;P1;durP1;ratioP1;P2;durP2;ratioP2
48207;SDS011;33997;53.278;9.708;2022-09-09T00:00:56;100.53;;;27.15;;
48207;SDS011;33997;53.278;9.708;2022-09-09T00:03:45;92.15;;;26.75;;
48207;SDS011;33997;53.278;9.708;2022-09-09T00:06:31;88.57;;;24.90;;
48207;SDS011;33997;53.278;9.708;2022-09-09T00:09:01;92.38;;;25.73;;
48207;SDS011;33997;53.278;9.708;2022-09-09T00:17:06;94.60;;;26.90;;
48207;SDS011;33997;53.278;9.708;2022-09-09T00:23:23;85.72;;;25.98;;
48207;SDS011;33997;53.278;9.708;2022-09-09T00:25:36;83.10;;;25.00;;
48207;SDS011;33997;53.278;9.708;2022-09-09T00:28:16;83.28;;;23.27;;
48207;SDS011;33997;53.278;9.708;2022-09-09T00:30:44;88.97;;;24.48;;
48207;SDS011;33997;53.278;9.708;2022-09-09T00:33:13;86.75;;;24.63;;
48207;SDS011;33997;53.278;9.708;2022-09-09T00:35:44;96.30;;;24.98;;
48207;SDS011;33997;53.278;9.708;2022-09-09T00:40:52;94.10;;;25.70;;
48207;SDS011;33997;53.278;9.708;2022-09-09T00:43:30;78.05;;;25.00;;
48207;SDS011;33997;53.278;9.708;2022-09-09T00:48:49;91.22;;;25.85;;
48207;SDS011;33997;53.278;9.708;2022-09-09T00:56:53;107.97;;;28.23;;
48207;SDS011;33997;53.278;9.708;2022-09-09T00:59:40;90.53;;;25.42;;
48207;SDS011;33997;53.278;9.708;2022-09-09T01:02:45;93.90;;;26.27;;
48207;SDS011;33997;53.278;9.708;2022-09-09T01:05:36;101.45;;;27.60;;
48207;SDS011;33997;53.278;9.708;2022-09-09T01:08:28;96.45;;;26.77;;
48207;SDS011;33997;53.278;9.708;2022-09-09T01:11:22;102.03;;;27.83;;
48207;SDS011;33997;53.278;9.708;2022-09-09T01:14:01;108.45;;;29.52;;
48207;SDS011;33997;53.278;9.708;2022-09-09T01:16:46;93.18;;;27.33;;
48207;SDS011;33997;53.278;9.708;2022-09-09T01:19:15;118.68;;;30.98;;
48207;SDS011;33997;53.278;9.708;2022-09-09T01:22:03;112.35;;;29.20;;
48207;SDS011;33997;53.278;9.708;2022-09-09T01:27:33;108.82;;;29.15;;
48207;SDS011;33997;53.278;9.708;2022-09-09T01:30:04;115.50;;;30.77;;
48207;SDS011;33997;53.278;9.708;2022-09-09T01:38:04;117.43;;;31.00;;
48207;SDS011;33997;53.278;9.708;2022-09-09T01:40:30;113.35;;;30.35;;
48207;SDS011;33997;53.278;9.708;2022-09-09T01:42:56;109.47;;;30.75;;
48207;SDS011;33997;53.278;9.708;2022-09-09T01:45:22;116.45;;;31.63;;
48207;SDS011;33997;53.278;9.708;2022-09-09T01:47:49;116.38;;;31.35;;
48207;SDS011;33997;53.278;9.708;2022-09-09T01:50:17;111.47;;;31.55;;
48207;SDS011;33997;53.278;9.708;2022-09-09T01:52:44;116.32;;;31.42;;
48207;SDS011;33997;53.278;9.708;2022-09-09T01:55:12;112.50;;;30.75;;
48207;SDS011;33997;53.278;9.708;2022-09-09T02:00:18;119.77;;;31.47;;
48207;SDS011;33997;53.278;9.708;2022-09-09T02:02:56;108.30;;;31.83;;
48207;SDS011;33997;53.278;9.708;2022-09-09T02:05:34;104.97;;;30.08;;
48207;SDS011;33997;53.278;9.708;2022-09-09T02:10:37;89.00;;;28.65;;
48207;SDS011;33997;53.278;9.708;2022-09-09T02:13:11;101.22;;;28.80;;
48207;SDS011;33997;53.278;9.708;2022-09-09T02:15:42;95.35;;;29.90;;
48207;SDS011;33997;53.278;9.708;2022-09-09T02:18:11;95.80;;;27.70;;
48207;SDS011;33997;53.278;9.708;2022-09-09T02:20:39;86.28;;;27.48;;
48207;SDS011;33997;53.278;9.708;2022-09-09T02:23:07;103.00;;;28.70;;
48207;SDS011;33997;53.278;9.708;2022-09-09T02:25:35;91.03;;;27.45;;
48207;SDS011;33997;53.278;9.708;2022-09-09T02:28:03;97.07;;;28.52;;
48207;SDS011;33997;53.278;9.708;2022-09-09T02:30:32;91.03;;;26.70;;
48207;SDS011;33997;53.278;9.708;2022-09-09T02:32:59;86.40;;;27.33;;
48207;SDS011;33997;53.278;9.708;2022-09-09T02:35:27;90.32;;;27.35;;
48207;SDS011;33997;53.278;9.708;2022-09-09T02:37:56;101.05;;;27.95;;
48207;SDS011;33997;53.278;9.708;2022-09-09T02:40:26;84.68;;;26.73;;
48207;SDS011;33997;53.278;9.708;2022-09-09T02:42:51;83.82;;;26.17;;
48207;SDS011;33997;53.278;9.708;2022-09-09T02:45:20;94.95;;;25.80;;
48207;SDS011;33997;53.278;9.708;2022-09-09T02:53:12;80.03;;;23.58;;
48207;SDS011;33997;53.278;9.708;2022-09-09T02:55:54;77.72;;;23.02;;
48207;SDS011;33997;53.278;9.708;2022-09-09T02:58:24;74.18;;;22.67;;
48207;SDS011;33997;53.278;9.708;2022-09-09T03:00:50;69.40;;;23.88;;
48207;SDS011;33997;53.278;9.708;2022-09-09T03:03:17;74.95;;;22.45;;
48207;SDS011;33997;53.278;9.708;2022-09-09T03:05:44;73.47;;;23.05;;
48207;SDS011;33997;53.278;9.708;2022-09-09T03:08:11;80.07;;;22.88;;
48207;SDS011;33997;53.278;9.708;2022-09-09T03:10:37;63.65;;;22.38;;
48207;SDS011;33997;53.278;9.708;2022-09-09T03:13:04;70.38;;;22.58;;
48207;SDS011;33997;53.278;9.708;2022-09-09T03:15:31;73.80;;;22.63;;
48207;SDS011;33997;53.278;9.708;2022-09-09T03:17:58;67.30;;;22.23;;
48207;SDS011;33997;53.278;9.708;2022-09-09T03:20:24;72.45;;;21.70;;
48207;SDS011;33997;53.278;9.708;2022-09-09T03:22:51;68.47;;;20.85;;
48207;SDS011;33997;53.278;9.708;2022-09-09T03:25:20;70.00;;;21.17;;
48207;SDS011;33997;53.278;9.708;2022-09-09T03:27:48;62.92;;;20.30;;
48207;SDS011;33997;53.278;9.708;2022-09-09T03:30:15;62.50;;;20.17;;
48207;SDS011;33997;53.278;9.708;2022-09-09T03:32:40;69.45;;;19.48;;
48207;SDS011;33997;53.278;9.708;2022-09-09T03:35:06;53.83;;;17.85;;
48207;SDS011;33997;53.278;9.708;2022-09-09T03:37:32;55.03;;;18.67;;
48207;SDS011;33997;53.278;9.708;2022-09-09T03:39:58;56.55;;;19.00;;
48207;SDS011;33997;53.278;9.708;2022-09-09T03:42:24;57.15;;;19.30;;
48207;SDS011;33997;53.278;9.708;2022-09-09T03:44:50;52.55;;;18.13;;
48207;SDS011;33997;53.278;9.708;2022-09-09T03:47:17;46.78;;;17.40;;
48207;SDS011;33997;53.278;9.708;2022-09-09T03:49:43;53.05;;;17.40;;
48207;SDS011;33997;53.278;9.708;2022-09-09T03:52:09;60.65;;;18.17;;
48207;SDS011;33997;53.278;9.708;2022-09-09T03:54:34;51.03;;;16.52;;
48207;SDS011;33997;53.278;9.708;2022-09-09T03:57:00;48.53;;;17.05;;
48207;SDS011;33997;53.278;9.708;2022-09-09T03:59:26;48.47;;;17.55;;
48207;SDS011;33997;53.278;9.708;2022-09-09T04:01:52;51.00;;;17.25;;
48207;SDS011;33997;53.278;9.708;2022-09-09T04:04:17;50.55;;;16.10;;
48207;SDS011;33997;53.278;9.708;2022-09-09T04:06:44;38.33;;;15.63;;
48207;SDS011;33997;53.278;9.708;2022-09-09T04:09:10;40.70;;;14.85;;
48207;SDS011;33997;53.278;9.708;2022-09-09T04:11:36;36.00;;;14.02;;
48207;SDS011;33997;53.278;9.708;2022-09-09T04:14:02;38.40;;;14.52;;
48207;SDS011;33997;53.278;9.708;2022-09-09T04:16:27;51.05;;;15.30;;
48207;SDS011;33997;53.278;9.708;2022-09-09T04:18:53;41.90;;;14.48;;
48207;SDS011;33997;53.278;9.708;2022-09-09T04:21:18;43.85;;;14.02;;
48207;SDS011;33997;53.278;9.708;2022-09-09T04:23:44;45.72;;;15.27;;
48207;SDS011;33997;53.278;9.708;2022-09-09T04:26:09;38.10;;;13.98;;
48207;SDS011;33997;53.278;9.708;2022-09-09T04:28:35;41.90;;;13.50;;
48207;SDS011;33997;53.278;9.708;2022-09-09T04:31:13;36.95;;;14.00;;
48207;SDS011;33997;53.278;9.708;2022-09-09T04:33:42;38.00;;;13.60;;
48207;SDS011;33997;53.278;9.708;2022-09-09T04:36:07;30.40;;;12.85;;
48207;SDS011;33997;53.278;9.708;2022-09-09T04:38:33;37.20;;;13.85;;
48207;SDS011;33997;53.278;9.708;2022-09-09T04:40:58;36.80;;;13.07;;
48207;SDS011;33997;53.278;9.708;2022-09-09T04:43:24;36.10;;;13.05;;
48207;SDS011;33997;53.278;9.708;2022-09-09T04:45:50;31.30;;;12.52;;
48207;SDS011;33997;53.278;9.708;2022-09-09T04:48:17;30.80;;;10.95;;
48207;SDS011;33997;53.278;9.708;2022-09-09T04:50:43;29.38;;;11.32;;
48207;SDS011;33997;53.278;9.708;2022-09-09T04:53:08;31.08;;;11.68;;
48207;SDS011;33997;53.278;9.708;2022-09-09T04:55:34;28.52;;;12.13;;
48207;SDS011;33997;53.278;9.708;2022-09-09T04:58:07;31.45;;;11.25;;
48207;SDS011;33997;53.278;9.708;2022-09-09T05:00:36;33.08;;;12.40;;
48207;SDS011;33997;53.278;9.708;2022-09-09T05:03:03;27.00;;;11.48;;
48207;SDS011;33997;53.278;9.708;2022-09-09T05:05:32;30.48;;;12.02;;
48207;SDS011;33997;53.278;9.708;2022-09-09T05:08:01;29.88;;;12.05;;
48207;SDS011;33997;53.278;9.708;2022-09-09T05:10:28;31.13;;;11.77;;
48207;SDS011;33997;53.278;9.708;2022-09-09T05:12:54;31.10;;;11.63;;
48207;SDS011;33997;53.278;9.708;2022-09-09T05:15:19;25.33;;;12.10;;
48207;SDS011;33997;53.278;9.708;2022-09-09T05:17:46;30.38;;;11.90;;
48207;SDS011;33997;53.278;9.708;2022-09-09T05:20:11;31.77;;;11.23;;
48207;SDS011;33997;53.278;9.708;2022-09-09T05:22:37;29.70;;;11.48;;
48207;SDS011;33997;53.278;9.708;2022-09-09T05:25:02;29.80;;;10.88;;
48207;SDS011;33997;53.278;9.708;2022-09-09T05:27:28;20.63;;;9.73;;
48207;SDS011;33997;53.278;9.708;2022-09-09T05:29:56;28.10;;;10.93;;
48207;SDS011;33997;53.278;9.708;2022-09-09T05:32:22;23.80;;;10.68;;
48207;SDS011;33997;53.278;9.708;2022-09-09T05:34:48;27.20;;;10.88;;
48207;SDS011;33997;53.278;9.708;2022-09-09T05:37:13;24.02;;;10.38;;
48207;SDS011;33997;53.278;9.708;2022-09-09T05:39:39;19.70;;;9.85;;
48207;SDS011;33997;53.278;9.708;2022-09-09T05:42:04;26.63;;;10.10;;
48207;SDS011;33997;53.278;9.708;2022-09-09T05:44:30;23.90;;;9.82;;
48207;SDS011;33997;53.278;9.708;2022-09-09T05:46:56;26.70;;;9.80;;
48207;SDS011;33997;53.278;9.708;2022-09-09T05:49:22;26.98;;;9.77;;
48207;SDS011;33997;53.278;9.708;2022-09-09T05:51:48;19.23;;;9.00;;
48207;SDS011;33997;53.278;9.708;2022-09-09T05:54:15;22.48;;;8.75;;
48207;SDS011;33997;53.278;9.708;2022-09-09T05:56:41;21.95;;;8.95;;
48207;SDS011;33997;53.278;9.708;2022-09-09T05:59:07;23.88;;;9.05;;
48207;SDS011;33997;53.278;9.708;2022-09-09T06:01:34;24.67;;;9.02;;
48207;SDS011;33997;53.278;9.708;2022-09-09T06:04:01;19.70;;;8.68;;
48207;SDS011;33997;53.278;9.708;2022-09-09T06:06:30;19.98;;;8.80;;
48207;SDS011;33997;53.278;9.708;2022-09-09T06:08:59;18.75;;;9.35;;
48207;SDS011;33997;53.278;9.708;2022-09-09T06:11:26;16.08;;;8.48;;
48207;SDS011;33997;53.278;9.708;2022-09-09T06:13:56;19.63;;;8.13;;
48207;SDS011;33997;53.278;9.708;2022-09-09T06:16:23;19.42;;;8.20;;
48207;SDS011;33997;53.278;9.708;2022-09-09T06:18:51;15.38;;;7.97;;
48207;SDS011;33997;53.278;9.708;2022-09-09T06:21:19;17.50;;;7.75;;
48207;SDS011;33997;53.278;9.708;2022-09-09T06:23:47;20.10;;;8.27;;
48207;SDS011;33997;53.278;9.708;2022-09-09T06:26:14;14.75;;;7.43;;
48207;SDS011;33997;53.278;9.708;2022-09-09T06:28:45;12.43;;;7.05;;
48207;SDS011;33997;53.278;9.708;2022-09-09T06:31:12;13.50;;;6.80;;
48207;SDS011;33997;53.278;9.708;2022-09-09T06:33:40;15.90;;;6.68;;
48207;SDS011;33997;53.278;9.708;2022-09-09T06:36:07;15.48;;;6.60;;
48207;SDS011;33997;53.278;9.708;2022-09-09T06:38:37;14.20;;;6.32;;
48207;SDS011;33997;53.278;9.708;2022-09-09T06:41:03;12.77;;;6.38;;
48207;SDS011;33997;53.278;9.708;2022-09-09T06:43:30;15.13;;;5.95;;
48207;SDS011;33997;53.278;9.708;2022-09-09T06:45:57;13.48;;;6.22;;
48207;SDS011;33997;53.278;9.708;2022-09-09T06:48:24;15.88;;;6.03;;
48207;SDS011;33997;53.278;9.708;2022-09-09T06:51:05;13.45;;;5.68;;
48207;SDS011;33997;53.278;9.708;2022-09-09T06:53:33;10.23;;;5.40;;
48207;SDS011;33997;53.278;9.708;2022-09-09T06:56:22;12.93;;;4.65;;
48207;SDS011;33997;53.278;9.708;2022-09-09T06:58:51;10.80;;;5.53;;
48207;SDS011;33997;53.278;9.708;2022-09-09T07:01:22;12.73;;;5.13;;
48207;SDS011;33997;53.278;9.708;2022-09-09T07:03:50;11.77;;;5.10;;
48207;SDS011;33997;53.278;9.708;2022-09-09T07:06:20;11.48;;;4.50;;
48207;SDS011;33997;53.278;9.708;2022-09-09T07:08:51;8.23;;;4.57;;
48207;SDS011;33997;53.278;9.708;2022-09-09T07:11:21;8.90;;;4.07;;
48207;SDS011;33997;53.278;9.708;2022-09-09T07:13:49;8.43;;;4.15;;
48207;SDS011;33997;53.278;9.708;2022-09-09T07:16:18;7.10;;;3.88;;
48207;SDS011;33997;53.278;9.708;2022-09-09T07:18:45;12.60;;;4.85;;
48207;SDS011;33997;53.278;9.708;2022-09-09T07:21:13;8.07;;;3.92;;
48207;SDS011;33997;53.278;9.708;2022-09-09T07:23:39;8.20;;;3.75;;
48207;SDS011;33997;53.278;9.708;2022-09-09T07:26:12;9.98;;;3.83;;
48207;SDS011;33997;53.278;9.708;2022-09-09T07:28:44;11.32;;;4.18;;
48207;SDS011;33997;53.278;9.708;2022-09-09T07:31:13;9.00;;;3.45;;
48207;SDS011;33997;53.278;9.708;2022-09-09T07:33:41;8.98;;;3.55;;
48207;SDS011;33997;53.278;9.708;2022-09-09T07:36:08;10.60;;;4.00;;
48207;SDS011;33997;53.278;9.708;2022-09-09T07:38:38;5.95;;;2.97;;
48207;SDS011;33997;53.278;9.708;2022-09-09T07:41:12;5.40;;;3.40;;
48207;SDS011;33997;53.278;9.708;2022-09-09T07:43:41;7.97;;;3.28;;
48207;SDS011;33997;53.278;9.708;2022-09-09T07:46:08;5.00;;;2.83;;
48207;SDS011;33997;53.278;9.708;2022-09-09T07:48:35;5.00;;;2.97;;
48207;SDS011;33997;53.278;9.708;2022-09-09T07:51:08;7.95;;;3.67;;
48207;SDS011;33997;53.278;9.708;2022-09-09T07:53:37;4.25;;;2.60;;
48207;SDS011;33997;53.278;9.708;2022-09-09T07:56:07;4.18;;;2.42;;
48207;SDS011;33997;53.278;9.708;2022-09-09T07:58:35;4.72;;;2.60;;
48207;SDS011;33997;53.278;9.708;2022-09-09T08:01:06;5.53;;;2.75;;
48207;SDS011;33997;53.278;9.708;2022-09-09T08:03:33;5.13;;;2.38;;
48207;SDS011;33997;53.278;9.708;2022-09-09T08:06:02;7.15;;;2.30;;
48207;SDS011;33997;53.278;9.708;2022-09-09T08:08:29;5.63;;;2.38;;
48207;SDS011;33997;53.278;9.708;2022-09-09T08:11:01;5.68;;;2.13;;
48207;SDS011;33997;53.278;9.708;2022-09-09T08:13:28;5.60;;;2.15;;
48207;SDS011;33997;53.278;9.708;2022-09-09T08:15:53;5.22;;;2.05;;
48207;SDS011;33997;53.278;9.708;2022-09-09T08:18:19;5.97;;;2.60;;
48207;SDS011;33997;53.278;9.708;2022-09-09T08:20:44;4.30;;;2.10;;
48207;SDS011;33997;53.278;9.708;2022-09-09T08:23:10;3.88;;;2.30;;
48207;SDS011;33997;53.278;9.708;2022-09-09T08:25:35;5.10;;;2.20;;
48207;SDS011;33997;53.278;9.708;2022-09-09T08:28:01;5.68;;;2.10;;
48207;SDS011;33997;53.278;9.708;2022-09-09T08:30:27;5.95;;;2.20;;
48207;SDS011;33997;53.278;9.708;2022-09-09T08:32:52;4.90;;;1.92;;
48207;SDS011;33997;53.278;9.708;2022-09-09T08:35:18;6.35;;;2.08;;
48207;SDS011;33997;53.278;9.708;2022-09-09T08:37:45;3.15;;;1.55;;
48207;SDS011;33997;53.278;9.708;2022-09-09T08:40:13;4.65;;;1.63;;
48207;SDS011;33997;53.278;9.708;2022-09-09T08:42:48;4.03;;;1.45;;
48207;SDS011;33997;53.278;9.708;2022-09-09T08:45:19;2.95;;;1.40;;
48207;SDS011;33997;53.278;9.708;2022-09-09T08:50:34;3.47;;;1.52;;
48207;SDS011;33997;53.278;9.708;2022-09-09T08:55:53;7.05;;;1.42;;
48207;SDS011;33997;53.278;9.708;2022-09-09T08:58:25;4.72;;;1.40;;
48207;SDS011;33997;53.278;9.708;2022-09-09T09:01:10;6.00;;;1.95;;
48207;SDS011;33997;53.278;9.708;2022-09-09T09:09:34;3.90;;;1.15;;
48207;SDS011;33997;53.278;9.708;2022-09-09T09:12:18;3.20;;;0.93;;
48207;SDS011;33997;53.278;9.708;2022-09-09T09:14:47;5.30;;;1.30;;
48207;SDS011;33997;53.278;9.708;2022-09-09T09:17:14;3.00;;;1.15;;
48207;SDS011;33997;53.278;9.708;2022-09-09T09:22:18;5.72;;;1.08;;
48207;SDS011;33997;53.278;9.708;2022-09-09T09:24:54;4.05;;;1.10;;
48207;SDS011;33997;53.278;9.708;2022-09-09T09:27:36;6.70;;;1.33;;
48207;SDS011;33997;53.278;9.708;2022-09-09T09:30:17;2.55;;;1.00;;
48207;SDS011;33997;53.278;9.708;2022-09-09T09:33:00;3.03;;;1.02;;
48207;SDS011;33997;53.278;9.708;2022-09-09T09:35:29;3.45;;;1.42;;
48207;SDS011;33997;53.278;9.708;2022-09-09T09:37:55;5.97;;;1.42;;
48207;SDS011;33997;53.278;9.708;2022-09-09T09:40:21;5.43;;;1.40;;
48207;SDS011;33997;53.278;9.708;2022-09-09T09:42:51;4.25;;;0.93;;
48207;SDS011;33997;53.278;9.708;2022-09-09T09:45:28;3.60;;;1.58;;
48207;SDS011;33997;53.278;9.708;2022-09-09T09:50:28;6.78;;;1.40;;
48207;SDS011;33997;53.278;9.708;2022-09-09T09:52:55;3.65;;;1.20;;
48207;SDS011;33997;53.278;9.708;2022-09-09T09:55:22;3.67;;;1.02;;
48207;SDS011;33997;53.278;9.708;2022-09-09T09:57:49;3.30;;;1.00;;
48207;SDS011;33997;53.278;9.708;2022-09-09T10:02:44;3.58;;;1.20;;
48207;SDS011;33997;53.278;9.708;2022-09-09T10:05:18;3.50;;;1.30;;
48207;SDS011;33997;53.278;9.708;2022-09-09T10:08:03;3.97;;;1.15;;
48207;SDS011;33997;53.278;9.708;2022-09-09T10:10:40;5.35;;;1.60;;
48207;SDS011;33997;53.278;9.708;2022-09-09T10:13:18;6.10;;;1.35;;
48207;SDS011;33997;53.278;9.708;2022-09-09T10:16:03;4.72;;;1.48;;
48207;SDS011;33997;53.278;9.708;2022-09-09T10:24:07;5.00;;;1.15;;
48207;SDS011;33997;53.278;9.708;2022-09-09T10:26:59;4.10;;;1.00;;
48207;SDS011;33997;53.278;9.708;2022-09-09T10:35:02;1.95;;;0.75;;
48207;SDS011;33997;53.278;9.708;2022-09-09T10:40:34;5.85;;;1.25;;
48207;SDS011;33997;53.278;9.708;2022-09-09T10:46:10;3.40;;;1.00;;
48207;SDS011;33997;53.278;9.708;2022-09-09T10:49:16;3.83;;;0.93;;
48207;SDS011;33997;53.278;9.708;2022-09-09T10:52:14;2.33;;;0.80;;
48207;SDS011;33997;53.278;9.708;2022-09-09T10:57:31;3.42;;;1.13;;
48207;SDS011;33997;53.278;9.708;2022-09-09T11:00:06;2.10;;;0.82;;
48207;SDS011;33997;53.278;9.708;2022-09-09T11:02:41;3.42;;;1.00;;
48207;SDS011;33997;53.278;9.708;2022-09-09T11:08:13;3.45;;;1.10;;
48207;SDS011;33997;53.278;9.708;2022-09-09T11:10:44;5.72;;;1.00;;
48207;SDS011;33997;53.278;9.708;2022-09-09T11:13:34;1.10;;;0.60;;
48207;SDS011;33997;53.278;9.708;2022-09-09T11:16:21;4.38;;;1.10;;
48207;SDS011;33997;53.278;9.708;2022-09-09T11:21:59;3.25;;;0.75;;
48207;SDS011;33997;53.278;9.708;2022-09-09T11:27:00;4.80;;;0.85;;
48207;SDS011;33997;53.278;9.708;2022-09-09T11:29:45;6.15;;;1.00;;
48207;SDS011;33997;53.278;9.708;2022-09-09T11:40:42;5.70;;;1.15;;
48207;SDS011;33997;53.278;9.708;2022-09-09T11:43:09;3.10;;;0.75;;
48207;SDS011;33997;53.278;9.708;2022-09-09T11:45:42;2.10;;;0.80;;
48207;SDS011;33997;53.278;9.708;2022-09-09T11:48:58;5.15;;;1.20;;
48207;SDS011;33997;53.278;9.708;2022-09-09T11:53:49;5.78;;;0.93;;
48207;SDS011;33997;53.278;9.708;2022-09-09T11:56:23;4.13;;;0.97;;
48207;SDS011;33997;53.278;9.708;2022-09-09T11:59:33;4.25;;;0.98;;
48207;SDS011;33997;53.278;9.708;2022-09-09T12:04:58;5.65;;;1.50;;
48207;SDS011;33997;53.278;9.708;2022-09-09T12:07:32;3.35;;;1.50;;
48207;SDS011;33997;53.278;9.708;2022-09-09T12:15:54;6.72;;;1.90;;
48207;SDS011;33997;53.278;9.708;2022-09-09T12:18:25;8.57;;;2.05;;
48207;SDS011;33997;53.278;9.708;2022-09-09T12:21:02;4.60;;;2.13;;
48207;SDS011;33997;53.278;9.708;2022-09-09T12:23:35;6.45;;;2.25;;
48207;SDS011;33997;53.278;9.708;2022-09-09T12:26:28;6.30;;;2.67;;
48207;SDS011;33997;53.278;9.708;2022-09-09T12:31:41;3.13;;;2.58;;
48207;SDS011;33997;53.278;9.708;2022-09-09T12:34:15;4.15;;;2.38;;
48207;SDS011;33997;53.278;9.708;2022-09-09T12:36:45;6.30;;;3.10;;
48207;SDS011;33997;53.278;9.708;2022-09-09T12:39:18;9.02;;;3.13;;
48207;SDS011;33997;53.278;9.708;2022-09-09T12:42:15;9.50;;;3.22;;
48207;SDS011;33997;53.278;9.708;2022-09-09T12:44:50;8.38;;;3.67;;
48207;SDS011;33997;53.278;9.708;2022-09-09T12:47:39;6.63;;;4.25;;
48207;SDS011;33997;53.278;9.708;2022-09-09T12:52:56;9.73;;;4.30;;
48207;SDS011;33997;53.278;9.708;2022-09-09T12:55:25;8.05;;;4.15;;
48207;SDS011;33997;53.278;9.708;2022-09-09T12:57:55;12.25;;;4.50;;
48207;SDS011;33997;53.278;9.708;2022-09-09T13:00:23;6.68;;;4.25;;
48207;SDS011;33997;53.278;9.708;2022-09-09T13:02:56;9.60;;;4.22;;
48207;SDS011;33997;53.278;9.708;2022-09-09T13:05:25;10.10;;;5.60;;
48207;SDS011;33997;53.278;9.708;2022-09-09T13:08:00;7.00;;;4.35;;
48207;SDS011;33997;53.278;9.708;2022-09-09T13:10:27;6.65;;;4.35;;
48207;SDS011;33997;53.278;9.708;2022-09-09T13:12:55;7.25;;;4.10;;
48207;SDS011;33997;53.278;9.708;2022-09-09T13:15:22;5.60;;;3.78;;
48207;SDS011;33997;53.278;9.708;2022-09-09T13:17:58;5.68;;;3.47;;
48207;SDS011;33997;53.278;9.708;2022-09-09T13:20:26;4.63;;;2.40;;
48207;SDS011;33997;53.278;9.708;2022-09-09T13:22:53;7.60;;;2.70;;
48207;SDS011;33997;53.278;9.708;2022-09-09T13:25:26;4.57;;;2.42;;
48207;SDS011;33997;53.278;9.708;2022-09-09T13:27:55;5.00;;;2.47;;
48207;SDS011;33997;53.278;9.708;2022-09-09T13:30:24;6.25;;;2.90;;
48207;SDS011;33997;53.278;9.708;2022-09-09T13:33:05;7.03;;;3.20;;
48207;SDS011;33997;53.278;9.708;2022-09-09T13:35:34;8.07;;;3.42;;
48207;SDS011;33997;53.278;9.708;2022-09-09T13:38:07;7.40;;;3.90;;
48207;SDS011;33997;53.278;9.708;2022-09-09T13:40:34;7.07;;;3.10;;
48207;SDS011;33997;53.278;9.708;2022-09-09T13:43:00;9.25;;;3.33;;
48207;SDS011;33997;53.278;9.708;2022-09-09T13:45:27;5.65;;;2.88;;
48207;SDS011;33997;53.278;9.708;2022-09-09T13:47:53;5.15;;;2.67;;
48207;SDS011;33997;53.278;9.708;2022-09-09T13:50:27;6.45;;;3.03;;
48207;SDS011;33997;53.278;9.708;2022-09-09T13:52:55;6.18;;;2.97;;
48207;SDS011;33997;53.278;9.708;2022-09-09T13:55:23;5.07;;;2.17;;
48207;SDS011;33997;53.278;9.708;2022-09-09T13:57:58;2.88;;;2.20;;
48207;SDS011;33997;53.278;9.708;2022-09-09T14:00:32;5.78;;;2.50;;
48207;SDS011;33997;53.278;9.708;2022-09-09T14:02:59;2.88;;;1.90;;
48207;SDS011;33997;53.278;9.708;2022-09-09T14:05:28;4.50;;;2.08;;
48207;SDS011;33997;53.278;9.708;2022-09-09T14:07:57;5.65;;;2.08;;
48207;SDS011;33997;53.278;9.708;2022-09-09T14:10:22;6.22;;;1.95;;
48207;SDS011;33997;53.278;9.708;2022-09-09T14:12:48;3.50;;;1.38;;
48207;SDS011;33997;53.278;9.708;2022-09-09T14:15:13;5.95;;;1.65;;
48207;SDS011;33997;53.278;9.708;2022-09-09T14:17:39;4.65;;;1.63;;
48207;SDS011;33997;53.278;9.708;2022-09-09T14:20:05;3.28;;;1.70;;
48207;SDS011;33997;53.278;9.708;2022-09-09T14:22:34;4.25;;;1.80;;
48207;SDS011;33997;53.278;9.708;2022-09-09T14:25:00;2.45;;;1.40;;
48207;SDS011;33997;53.278;9.708;2022-09-09T14:27:25;4.20;;;1.60;;
48207;SDS011;33997;53.278;9.708;2022-09-09T14:29:51;5.55;;;1.60;;
48207;SDS011;33997;53.278;9.708;2022-09-09T14:32:17;3.42;;;1.65;;
48207;SDS011;33997;53.278;9.708;2022-09-09T14:34:43;6.20;;;2.00;;
48207;SDS011;33997;53.278;9.708;2022-09-09T14:37:09;3.40;;;1.38;;
48207;SDS011;33997;53.278;9.708;2022-09-09T14:39:34;3.53;;;1.40;;
48207;SDS011;33997;53.278;9.708;2022-09-09T14:42:00;4.93;;;1.50;;
48207;SDS011;33997;53.278;9.708;2022-09-09T14:44:25;5.95;;;1.42;;
48207;SDS011;33997;53.278;9.708;2022-09-09T14:46:51;2.55;;;1.40;;
48207;SDS011;33997;53.278;9.708;2022-09-09T14:49:16;4.68;;;1.20;;
48207;SDS011;33997;53.278;9.708;2022-09-09T14:51:42;1.60;;;1.20;;
48207;SDS011;33997;53.278;9.708;2022-09-09T14:54:07;2.00;;;1.00;;
48207;SDS011;33997;53.278;9.708;2022-09-09T14:56:33;4.22;;;1.30;;
48207;SDS011;33997;53.278;9.708;2022-09-09T14:59:00;3.67;;;1.05;;
48207;SDS011;33997;53.278;9.708;2022-09-09T15:01:26;4.05;;;1.63;;
48207;SDS011;33997;53.278;9.708;2022-09-09T15:03:53;4.80;;;1.20;;
48207;SDS011;33997;53.278;9.708;2022-09-09T15:06:20;2.08;;;0.90;;
48207;SDS011;33997;53.278;9.708;2022-09-09T15:08:49;1.75;;;0.90;;
48207;SDS011;33997;53.278;9.708;2022-09-09T15:11:16;1.67;;;0.77;;
48207;SDS011;33997;53.278;9.708;2022-09-09T15:13:42;1.90;;;0.65;;
48207;SDS011;33997;53.278;9.708;2022-09-09T15:18:38;1.57;;;0.70;;
48207;SDS011;33997;53.278;9.708;2022-09-09T15:21:07;2.67;;;0.63;;
48207;SDS011;33997;53.278;9.708;2022-09-09T15:23:34;3.25;;;0.65;;
48207;SDS011;33997;53.278;9.708;2022-09-09T15:26:00;0.90;;;0.52;;
48207;SDS011;33997;53.278;9.708;2022-09-09T15:28:27;2.80;;;0.60;;
48207;SDS011;33997;53.278;9.708;2022-09-09T15:30:53;1.38;;;0.40;;
48207;SDS011;33997;53.278;9.708;2022-09-09T15:33:19;2.90;;;0.70;;
48207;SDS011;33997;53.278;9.708;2022-09-09T15:35:46;2.50;;;0.80;;
48207;SDS011;33997;53.278;9.708;2022-09-09T15:38:12;2.03;;;0.43;;
48207;SDS011;33997;53.278;9.708;2022-09-09T15:40:38;1.95;;;0.60;;
48207;SDS011;33997;53.278;9.708;2022-09-09T15:43:04;1.40;;;0.65;;
48207;SDS011;33997;53.278;9.708;2022-09-09T15:45:31;2.70;;;0.68;;
48207;SDS011;33997;53.278;9.708;2022-09-09T15:47:58;0.85;;;0.50;;
48207;SDS011;33997;53.278;9.708;2022-09-09T15:50:27;1.95;;;0.80;;
48207;SDS011;33997;53.278;9.708;2022-09-09T15:52:55;2.63;;;0.60;;
48207;SDS011;33997;53.278;9.708;2022-09-09T15:55:20;2.33;;;0.68;;
48207;SDS011;33997;53.278;9.708;2022-09-09T15:57:46;1.67;;;0.75;;
48207;SDS011;33997;53.278;9.708;2022-09-09T16:00:12;2.03;;;0.80;;
48207;SDS011;33997;53.278;9.708;2022-09-09T16:02:38;2.30;;;0.68;;
48207;SDS011;33997;53.278;9.708;2022-09-09T16:05:04;1.77;;;0.57;;
48207;SDS011;33997;53.278;9.708;2022-09-09T16:07:30;2.08;;;0.75;;
48207;SDS011;33997;53.278;9.708;2022-09-09T16:09:56;2.95;;;1.00;;
48207;SDS011;33997;53.278;9.708;2022-09-09T16:12:21;1.58;;;0.70;;
48207;SDS011;33997;53.278;9.708;2022-09-09T16:14:47;1.67;;;0.95;;
48207;SDS011;33997;53.278;9.708;2022-09-09T16:17:12;0.75;;;0.60;;
48207;SDS011;33997;53.278;9.708;2022-09-09T16:19:39;3.00;;;0.95;;
48207;SDS011;33997;53.278;9.708;2022-09-09T16:22:04;2.45;;;1.00;;
48207;SDS011;33997;53.278;9.708;2022-09-09T16:24:31;1.73;;;0.80;;
48207;SDS011;33997;53.278;9.708;2022-09-09T16:26:57;3.10;;;0.85;;
48207;SDS011;33997;53.278;9.708;2022-09-09T16:29:23;1.75;;;1.10;;
48207;SDS011;33997;53.278;9.708;2022-09-09T16:31:49;3.97;;;0.95;;
48207;SDS011;33997;53.278;9.708;2022-09-09T16:34:16;4.43;;;1.02;;
48207;SDS011;33997;53.278;9.708;2022-09-09T16:36:42;2.25;;;0.90;;
48207;SDS011;33997;53.278;9.708;2022-09-09T16:39:10;4.25;;;1.40;;
48207;SDS011;33997;53.278;9.708;2022-09-09T16:41:38;4.60;;;1.23;;
48207;SDS011;33997;53.278;9.708;2022-09-09T16:44:05;2.78;;;1.10;;
48207;SDS011;33997;53.278;9.708;2022-09-09T16:46:36;2.03;;;0.95;;